sensor_id;sensor_type;location;lat;lon;timestamp;pressure;altitude;pressure_sealevel;temperature;humidity
11349;BME280;5729;43.570;27.826;2022-12-20T00:00:51;101458.13;;;-0.90;100.00
11349;BME280;5729;43.570;27.826;2022-12-20T00:03:16;101456.81;;;-0.99;100.00
11349;BME280;5729;43.570;27.826;2022-12-20T00:05:42;101454.38;;;-0.82;100.00
11349;BME280;5729;43.570;27.826;2022-12-20T00:08:09;101461.97;;;-1.04;100.00
11349;BME280;5729;43.570;27.826;2022-12-20T00:10:39;101466.06;;;-1.08;100.00
11349;BME280;5729;43.570;27.826;2022-12-20T00:13:05;101466.66;;;-0.88;100.00
11349;BME280;5729;43.570;27.826;2022-12-20T00:15:31;101457.38;;;-0.79;100.00
11349;BME280;5729;43.570;27.826;2022-12-20T00:17:57;101466.06;;;-0.90;100.00
11349;BME280;5729;43.570;27.826;2022-12-20T00:20:24;101468.53;;;-0.77;100.00
11349;BME280;5729;43.570;27.826;2022-12-20T00:22:49;101453.72;;;-0.96;100.00
11349;BME280;5729;43.570;27.826;2022-12-20T00:25:15;101461.22;;;-0.93;100.00
11349;BME280;5729;43.570;27.826;2022-12-20T00:27:40;101469.75;;;-0.91;100.00
11349;BME280;5729;43.570;27.826;2022-12-20T00:30:06;101469.16;;;-0.93;100.00
11349;BME280;5729;43.570;27.826;2022-12-20T00:32:32;101461.56;;;-0.89;100.00
11349;BME280;5729;43.570;27.826;2022-12-20T00:34:57;101456.22;;;-0.83;100.00
11349;BME280;5729;43.570;27.826;2022-12-20T00:37:23;101440.94;;;-1.17;100.00
11349;BME280;5729;43.570;27.826;2022-12-20T00:39:48;101433.13;;;-1.12;100.00
11349;BME280;5729;43.570;27.826;2022-12-20T00:42:14;101438.16;;;-1.04;100.00
11349;BME280;5729;43.570;27.826;2022-12-20T00:44:40;101426.16;;;-1.06;100.00
11349;BME280;5729;43.570;27.826;2022-12-20T00:47:05;101411.03;;;-1.18;100.00
11349;BME280;5729;43.570;27.826;2022-12-20T00:49:31;101425.13;;;-1.05;100.00
11349;BME280;5729;43.570;27.826;2022-12-20T00:51:56;101427.19;;;-1.26;100.00
11349;BME280;5729;43.570;27.826;2022-12-20T00:54:21;101416.16;;;-1.04;100.00
11349;BME280;5729;43.570;27.826;2022-12-20T00:56:47;101423.88;;;-1.21;100.00
11349;BME280;5729;43.570;27.826;2022-12-20T00:59:12;101415.72;;;-1.20;100.00
11349;BME280;5729;43.570;27.826;2022-12-20T01:01:38;101413.13;;;-1.08;100.00
11349;BME280;5729;43.570;27.826;2022-12-20T01:04:03;101421.25;;;-1.03;100.00
11349;BME280;5729;43.570;27.826;2022-12-20T01:06:30;101411.22;;;-1.01;100.00
11349;BME280;5729;43.570;27.826;2022-12-20T01:08:56;101413.78;;;-1.13;100.00
11349;BME280;5729;43.570;27.826;2022-12-20T01:11:27;101408.00;;;-1.21;100.00
11349;BME280;5729;43.570;27.826;2022-12-20T01:13:56;101394.06;;;-1.28;100.00
11349;BME280;5729;43.570;27.826;2022-12-20T01:16:25;101388.75;;;-1.28;100.00
11349;BME280;5729;43.570;27.826;2022-12-20T01:18:51;101393.03;;;-1.27;100.00
11349;BME280;5729;43.570;27.826;2022-12-20T01:21:18;101387.94;;;-1.29;100.00
11349;BME280;5729;43.570;27.826;2022-12-20T01:23:45;101384.69;;;-1.13;100.00
11349;BME280;5729;43.570;27.826;2022-12-20T01:26:13;101372.34;;;-1.19;100.00
11349;BME280;5729;43.570;27.826;2022-12-20T01:28:42;101379.53;;;-1.07;100.00
11349;BME280;5729;43.570;27.826;2022-12-20T01:31:10;101369.00;;;-0.96;100.00
11349;BME280;5729;43.570;27.826;2022-12-20T01:33:36;101361.66;;;-0.94;100.00
11349;BME280;5729;43.570;27.826;2022-12-20T01:36:05;101371.47;;;-0.83;100.00
11349;BME280;5729;43.570;27.826;2022-12-20T01:38:31;101359.59;;;-0.92;100.00
11349;BME280;5729;43.570;27.826;2022-12-20T01:40:57;101368.84;;;-1.01;100.00
11349;BME280;5729;43.570;27.826;2022-12-20T01:43:24;101362.84;;;-0.78;100.00
11349;BME280;5729;43.570;27.826;2022-12-20T01:45:50;101363.81;;;-0.73;100.00
11349;BME280;5729;43.570;27.826;2022-12-20T01:48:24;101356.25;;;-0.57;100.00
11349;BME280;5729;43.570;27.826;2022-12-20T01:50:52;101358.19;;;-0.53;100.00
11349;BME280;5729;43.570;27.826;2022-12-20T01:53:20;101354.97;;;-0.55;100.00
11349;BME280;5729;43.570;27.826;2022-12-20T01:55:47;101345.41;;;-0.56;100.00
11349;BME280;5729;43.570;27.826;2022-12-20T01:58:14;101335.38;;;-0.65;100.00
11349;BME280;5729;43.570;27.826;2022-12-20T02:00:41;101348.56;;;-0.47;100.00
11349;BME280;5729;43.570;27.826;2022-12-20T02:03:10;101345.41;;;-0.56;100.00
11349;BME280;5729;43.570;27.826;2022-12-20T02:05:38;101347.94;;;-0.61;100.00
11349;BME280;5729;43.570;27.826;2022-12-20T02:08:05;101335.56;;;-0.79;100.00
11349;BME280;5729;43.570;27.826;2022-12-20T02:16:25;101336.84;;;-0.81;100.00
11349;BME280;5729;43.570;27.826;2022-12-20T02:21:32;101345.50;;;-1.04;100.00
11349;BME280;5729;43.570;27.826;2022-12-20T02:24:38;101332.81;;;-0.84;100.00
11349;BME280;5729;43.570;27.826;2022-12-20T02:30:09;101339.03;;;-0.66;100.00
11349;BME280;5729;43.570;27.826;2022-12-20T02:32:39;101331.59;;;-0.58;100.00
11349;BME280;5729;43.570;27.826;2022-12-20T02:35:07;101334.13;;;-0.63;100.00
11349;BME280;5729;43.570;27.826;2022-12-20T02:37:33;101341.13;;;-0.68;100.00
11349;BME280;5729;43.570;27.826;2022-12-20T02:39:59;101349.34;;;-0.88;100.00
11349;BME280;5729;43.570;27.826;2022-12-20T02:42:25;101342.94;;;-0.81;100.00
11349;BME280;5729;43.570;27.826;2022-12-20T02:45:03;101336.84;;;-0.81;100.00
11349;BME280;5729;43.570;27.826;2022-12-20T02:50:49;101330.78;;;-0.58;100.00
11349;BME280;5729;43.570;27.826;2022-12-20T02:53:17;101326.88;;;-0.44;100.00
11349;BME280;5729;43.570;27.826;2022-12-20T02:55:50;101330.81;;;-0.47;100.00
11349;BME280;5729;43.570;27.826;2022-12-20T02:58:22;101325.72;;;-0.60;100.00
11349;BME280;5729;43.570;27.826;2022-12-20T03:00:52;101324.22;;;-0.56;100.00
11349;BME280;5729;43.570;27.826;2022-12-20T03:03:20;101321.78;;;-0.69;100.00
11349;BME280;5729;43.570;27.826;2022-12-20T03:05:51;101314.66;;;-0.68;100.00
11349;BME280;5729;43.570;27.826;2022-12-20T03:08:17;101328.94;;;-0.69;100.00
11349;BME280;5729;43.570;27.826;2022-12-20T03:10:42;101327.75;;;-0.74;100.00
11349;BME280;5729;43.570;27.826;2022-12-20T03:13:08;101309.56;;;-0.82;100.00
11349;BME280;5729;43.570;27.826;2022-12-20T03:15:34;101321.41;;;-0.84;100.00
11349;BME280;5729;43.570;27.826;2022-12-20T03:17:59;101315.56;;;-0.75;100.00
11349;BME280;5729;43.570;27.826;2022-12-20T03:20:25;101316.25;;;-0.67;100.00
11349;BME280;5729;43.570;27.826;2022-12-20T03:22:50;101310.94;;;-0.67;100.00
11349;BME280;5729;43.570;27.826;2022-12-20T03:25:17;101309.56;;;-0.82;100.00
11349;BME280;5729;43.570;27.826;2022-12-20T03:27:43;101306.53;;;-0.85;100.00
11349;BME280;5729;43.570;27.826;2022-12-20T03:30:09;101305.47;;;-0.96;100.00
11349;BME280;5729;43.570;27.826;2022-12-20T03:32:35;101309.09;;;-0.79;100.00
11349;BME280;5729;43.570;27.826;2022-12-20T03:35:00;101315.75;;;-0.88;100.00
11349;BME280;5729;43.570;27.826;2022-12-20T03:37:26;101320.59;;;-0.85;100.00
11349;BME280;5729;43.570;27.826;2022-12-20T03:39:51;101319.16;;;-0.69;100.00
11349;BME280;5729;43.570;27.826;2022-12-20T03:42:16;101317.16;;;-0.74;100.00
11349;BME280;5729;43.570;27.826;2022-12-20T03:44:42;101313.03;;;-0.69;100.00
11349;BME280;5729;43.570;27.826;2022-12-20T03:47:07;101318.66;;;-0.66;100.00
11349;BME280;5729;43.570;27.826;2022-12-20T03:49:33;101324.00;;;-0.96;100.00
11349;BME280;5729;43.570;27.826;2022-12-20T03:51:58;101316.97;;;-1.02;100.00
11349;BME280;5729;43.570;27.826;2022-12-20T03:54:24;101313.06;;;-0.99;100.00
11349;BME280;5729;43.570;27.826;2022-12-20T03:56:49;101302.06;;;-0.85;100.00
11349;BME280;5729;43.570;27.826;2022-12-20T03:59:15;101318.19;;;-0.75;100.00
11349;BME280;5729;43.570;27.826;2022-12-20T04:01:40;101314.00;;;-0.94;100.00
11349;BME280;5729;43.570;27.826;2022-12-20T04:04:06;101326.97;;;-1.04;100.00
11349;BME280;5729;43.570;27.826;2022-12-20T04:06:34;101312.19;;;-1.12;100.00
11349;BME280;5729;43.570;27.826;2022-12-20T04:08:59;101319.84;;;-1.03;100.00
11349;BME280;5729;43.570;27.826;2022-12-20T04:11:25;101317.19;;;-1.03;100.00
11349;BME280;5729;43.570;27.826;2022-12-20T04:13:51;101313.31;;;-0.89;100.00
11349;BME280;5729;43.570;27.826;2022-12-20T04:16:20;101329.34;;;-0.84;100.00
11349;BME280;5729;43.570;27.826;2022-12-20T04:18:47;101317.84;;;-0.78;100.00
11349;BME280;5729;43.570;27.826;2022-12-20T04:21:13;101325.44;;;-0.82;100.00
11349;BME280;5729;43.570;27.826;2022-12-20T04:23:40;101302.28;;;-0.86;100.00
11349;BME280;5729;43.570;27.826;2022-12-20T04:26:06;101309.78;;;-0.83;100.00
11349;BME280;5729;43.570;27.826;2022-12-20T04:28:33;101314.59;;;-0.92;100.00
11349;BME280;5729;43.570;27.826;2022-12-20T04:30:58;101314.38;;;-0.79;100.00
11349;BME280;5729;43.570;27.826;2022-12-20T04:33:25;101320.16;;;-0.82;100.00
11349;BME280;5729;43.570;27.826;2022-12-20T04:35:51;101304.09;;;-0.98;100.00
11349;BME280;5729;43.570;27.826;2022-12-20T04:38:18;101303.97;;;-1.03;100.00
11349;BME280;5729;43.570;27.826;2022-12-20T04:40:43;101298.94;;;-0.93;100.00
11349;BME280;5729;43.570;27.826;2022-12-20T04:43:09;101298.78;;;-0.98;100.00
11349;BME280;5729;43.570;27.826;2022-12-20T04:45:34;101309.38;;;-0.98;100.00
11349;BME280;5729;43.570;27.826;2022-12-20T04:48:00;101305.84;;;-1.22;100.00
11349;BME280;5729;43.570;27.826;2022-12-20T04:50:25;101308.91;;;-1.07;100.00
11349;BME280;5729;43.570;27.826;2022-12-20T04:52:51;101304.44;;;-0.95;100.00
11349;BME280;5729;43.570;27.826;2022-12-20T04:55:39;101308.09;;;-1.07;100.00
11349;BME280;5729;43.570;27.826;2022-12-20T04:58:05;101289.56;;;-1.07;100.00
11349;BME280;5729;43.570;27.826;2022-12-20T05:00:31;101292.09;;;-1.01;100.00
11349;BME280;5729;43.570;27.826;2022-12-20T05:02:57;101297.97;;;-0.99;100.00
11349;BME280;5729;43.570;27.826;2022-12-20T05:05:23;101304.44;;;-0.95;100.00
11349;BME280;5729;43.570;27.826;2022-12-20T05:07:49;101301.91;;;-0.90;100.00
11349;BME280;5729;43.570;27.826;2022-12-20T05:10:14;101307.72;;;-0.81;100.00
11349;BME280;5729;43.570;27.826;2022-12-20T05:12:40;101299.81;;;-0.99;100.00
11349;BME280;5729;43.570;27.826;2022-12-20T05:15:06;101312.44;;;-0.83;100.00
11349;BME280;5729;43.570;27.826;2022-12-20T05:17:32;101300.72;;;-1.05;100.00
11349;BME280;5729;43.570;27.826;2022-12-20T05:19:58;101297.97;;;-0.99;100.00
11349;BME280;5729;43.570;27.826;2022-12-20T05:22:24;101287.94;;;-1.08;100.00
11349;BME280;5729;43.570;27.826;2022-12-20T05:25:09;101302.66;;;-0.83;100.00
11349;BME280;5729;43.570;27.826;2022-12-20T05:27:54;101296.22;;;-0.75;100.00
11349;BME280;5729;43.570;27.826;2022-12-20T05:30:19;101292.25;;;-0.96;100.00
11349;BME280;5729;43.570;27.826;2022-12-20T05:32:45;101286.63;;;-0.88;100.00
11349;BME280;5729;43.570;27.826;2022-12-20T05:35:10;101294.13;;;-0.85;100.00
11349;BME280;5729;43.570;27.826;2022-12-20T05:37:35;101288.38;;;-1.12;100.00
11349;BME280;5729;43.570;27.826;2022-12-20T05:40:01;101280.34;;;-1.17;100.00
11349;BME280;5729;43.570;27.826;2022-12-20T05:42:28;101297.78;;;-1.46;100.00
11349;BME280;5729;43.570;27.826;2022-12-20T05:44:54;101301.56;;;-1.23;100.00
11349;BME280;5729;43.570;27.826;2022-12-20T05:47:19;101309.22;;;-1.15;100.00
11349;BME280;5729;43.570;27.826;2022-12-20T05:49:44;101298.16;;;-1.12;100.00
11349;BME280;5729;43.570;27.826;2022-12-20T05:52:10;101300.59;;;-1.11;100.00
11349;BME280;5729;43.570;27.826;2022-12-20T05:54:35;101295.56;;;-1.30;100.00
11349;BME280;5729;43.570;27.826;2022-12-20T05:57:01;101293.94;;;-1.01;100.00
11349;BME280;5729;43.570;27.826;2022-12-20T05:59:26;101306.19;;;-0.89;100.00
11349;BME280;5729;43.570;27.826;2022-12-20T06:01:52;101308.03;;;-0.89;100.00
11349;BME280;5729;43.570;27.826;2022-12-20T06:04:17;101294.56;;;-0.88;100.00
11349;BME280;5729;43.570;27.826;2022-12-20T06:06:42;101305.66;;;-0.79;100.00
11349;BME280;5729;43.570;27.826;2022-12-20T06:09:08;101300.72;;;-0.64;100.00
11349;BME280;5729;43.570;27.826;2022-12-20T06:11:33;101303.94;;;-0.62;100.00
11349;BME280;5729;43.570;27.826;2022-12-20T06:13:59;101302.22;;;-0.56;100.00
11349;BME280;5729;43.570;27.826;2022-12-20T06:16:24;101312.22;;;-0.70;100.00
11349;BME280;5729;43.570;27.826;2022-12-20T06:18:50;101305.44;;;-0.54;100.00
11349;BME280;5729;43.570;27.826;2022-12-20T06:21:16;101303.97;;;-0.39;100.00
11349;BME280;5729;43.570;27.826;2022-12-20T06:23:42;101293.13;;;-0.60;100.00
11349;BME280;5729;43.570;27.826;2022-12-20T06:26:07;101301.91;;;-0.48;100.00
11349;BME280;5729;43.570;27.826;2022-12-20T06:28:34;101304.88;;;-0.45;100.00
11349;BME280;5729;43.570;27.826;2022-12-20T06:31:06;101310.19;;;-0.33;100.00
11349;BME280;5729;43.570;27.826;2022-12-20T06:33:32;101306.41;;;-0.25;100.00
11349;BME280;5729;43.570;27.826;2022-12-20T06:35:58;101306.88;;;-0.28;100.00
11349;BME280;5729;43.570;27.826;2022-12-20T06:38:23;101320.78;;;-0.21;100.00
11349;BME280;5729;43.570;27.826;2022-12-20T06:40:49;101322.09;;;-0.24;100.00
11349;BME280;5729;43.570;27.826;2022-12-20T06:43:15;101316.31;;;-0.21;100.00
11349;BME280;5729;43.570;27.826;2022-12-20T06:45:40;101310.09;;;-0.15;100.00
11349;BME280;5729;43.570;27.826;2022-12-20T06:48:06;101312.38;;;-0.30;100.00
11349;BME280;5729;43.570;27.826;2022-12-20T06:50:31;101327.03;;;-0.16;100.00
11349;BME280;5729;43.570;27.826;2022-12-20T06:52:57;101321.97;;;-0.17;100.00
11349;BME280;5729;43.570;27.826;2022-12-20T06:55:22;101321.94;;;-0.29;100.00
11349;BME280;5729;43.570;27.826;2022-12-20T06:57:48;101314.13;;;-0.24;100.00
11349;BME280;5729;43.570;27.826;2022-12-20T07:00:14;101312.75;;;-0.15;100.00
11349;BME280;5729;43.570;27.826;2022-12-20T07:02:40;101319.53;;;0.16;100.00
11349;BME280;5729;43.570;27.826;2022-12-20T07:05:05;101312.50;;;0.22;100.00
11349;BME280;5729;43.570;27.826;2022-12-20T07:07:31;101305.84;;;0.48;100.00
11349;BME280;5729;43.570;27.826;2022-12-20T07:09:56;101300.94;;;0.68;100.00
11349;BME280;5729;43.570;27.826;2022-12-20T07:12:22;101285.81;;;0.68;100.00
11349;BME280;5729;43.570;27.826;2022-12-20T07:14:48;101289.88;;;0.59;100.00
11349;BME280;5729;43.570;27.826;2022-12-20T07:17:13;101284.59;;;0.59;100.00
11349;BME280;5729;43.570;27.826;2022-12-20T07:19:39;101286.91;;;0.56;100.00
11349;BME280;5729;43.570;27.826;2022-12-20T07:22:05;101284.03;;;0.46;100.00
11349;BME280;5729;43.570;27.826;2022-12-20T07:24:31;101286.59;;;0.41;100.00
11349;BME280;5729;43.570;27.826;2022-12-20T07:26:57;101290.06;;;0.41;100.00
11349;BME280;5729;43.570;27.826;2022-12-20T07:29:22;101270.94;;;0.27;100.00
11349;BME280;5729;43.570;27.826;2022-12-20T07:31:48;101274.69;;;0.03;100.00
11349;BME280;5729;43.570;27.826;2022-12-20T07:34:13;101276.88;;;-0.06;100.00
11349;BME280;5729;43.570;27.826;2022-12-20T07:36:39;101277.91;;;0.05;100.00
11349;BME280;5729;43.570;27.826;2022-12-20T07:39:04;101278.06;;;-0.02;100.00
11349;BME280;5729;43.570;27.826;2022-12-20T07:41:30;101271.13;;;-0.03;100.00
11349;BME280;5729;43.570;27.826;2022-12-20T07:43:55;101270.88;;;0.11;100.00
11349;BME280;5729;43.570;27.826;2022-12-20T07:46:23;101268.84;;;0.41;100.00
11349;BME280;5729;43.570;27.826;2022-12-20T07:48:48;101251.88;;;0.70;100.00
11349;BME280;5729;43.570;27.826;2022-12-20T07:51:26;101250.25;;;0.98;100.00
11349;BME280;5729;43.570;27.826;2022-12-20T07:54:00;101259.84;;;1.32;100.00
11349;BME280;5729;43.570;27.826;2022-12-20T07:56:30;101216.53;;;1.32;100.00
11349;BME280;5729;43.570;27.826;2022-12-20T07:58:58;101261.31;;;1.23;100.00
11349;BME280;5729;43.570;27.826;2022-12-20T08:01:25;101253.72;;;1.32;100.00
11349;BME280;5729;43.570;27.826;2022-12-20T08:03:57;101255.50;;;1.26;100.00
11349;BME280;5729;43.570;27.826;2022-12-20T08:06:24;101251.47;;;1.40;100.00
11349;BME280;5729;43.570;27.826;2022-12-20T08:08:53;101240.50;;;1.03;100.00
11349;BME280;5729;43.570;27.826;2022-12-20T08:11:21;101255.94;;;0.45;100.00
11349;BME280;5729;43.570;27.826;2022-12-20T08:13:48;101245.34;;;0.61;100.00
11349;BME280;5729;43.570;27.826;2022-12-20T08:16:14;101241.63;;;0.91;100.00
11349;BME280;5729;43.570;27.826;2022-12-20T08:18:40;101239.41;;;0.99;100.00
11349;BME280;5729;43.570;27.826;2022-12-20T08:21:05;101235.03;;;0.93;100.00
11349;BME280;5729;43.570;27.826;2022-12-20T08:23:31;101231.81;;;1.08;100.00
11349;BME280;5729;43.570;27.826;2022-12-20T08:26:00;101223.63;;;1.09;100.00
11349;BME280;5729;43.570;27.826;2022-12-20T08:28:25;101232.97;;;1.29;100.00
11349;BME280;5729;43.570;27.826;2022-12-20T08:30:50;101229.50;;;1.45;100.00
11349;BME280;5729;43.570;27.826;2022-12-20T08:33:16;101228.28;;;1.53;100.00
11349;BME280;5729;43.570;27.826;2022-12-20T08:35:41;101223.34;;;1.61;100.00
11349;BME280;5729;43.570;27.826;2022-12-20T08:38:07;101217.75;;;1.79;100.00
11349;BME280;5729;43.570;27.826;2022-12-20T08:40:32;101214.66;;;1.88;100.00
11349;BME280;5729;43.570;27.826;2022-12-20T08:42:58;101211.63;;;2.23;100.00
11349;BME280;5729;43.570;27.826;2022-12-20T08:45:23;101208.19;;;2.49;100.00
11349;BME280;5729;43.570;27.826;2022-12-20T08:47:49;101203.56;;;2.93;100.00
11349;BME280;5729;43.570;27.826;2022-12-20T08:50:14;101195.59;;;3.77;100.00
11349;BME280;5729;43.570;27.826;2022-12-20T08:52:40;101187.56;;;4.45;100.00
11349;BME280;5729;43.570;27.826;2022-12-20T08:55:05;101184.13;;;4.74;100.00
11349;BME280;5729;43.570;27.826;2022-12-20T08:57:31;101184.94;;;4.80;100.00
11349;BME280;5729;43.570;27.826;2022-12-20T08:59:57;101183.84;;;5.22;100.00
11349;BME280;5729;43.570;27.826;2022-12-20T09:02:22;101187.59;;;5.31;100.00
11349;BME280;5729;43.570;27.826;2022-12-20T09:04:47;101176.59;;;5.53;100.00
11349;BME280;5729;43.570;27.826;2022-12-20T09:07:13;101178.19;;;5.59;100.00
11349;BME280;5729;43.570;27.826;2022-12-20T09:09:38;101177.88;;;5.75;100.00
11349;BME280;5729;43.570;27.826;2022-12-20T09:12:04;101172.81;;;5.64;100.00
11349;BME280;5729;43.570;27.826;2022-12-20T09:14:29;101171.41;;;5.81;100.00
11349;BME280;5729;43.570;27.826;2022-12-20T09:16:55;101167.59;;;6.08;100.00
11349;BME280;5729;43.570;27.826;2022-12-20T09:19:20;101159.47;;;6.23;100.00
11349;BME280;5729;43.570;27.826;2022-12-20T09:21:45;101157.38;;;6.59;100.00
11349;BME280;5729;43.570;27.826;2022-12-20T09:24:11;101158.91;;;6.31;100.00
11349;BME280;5729;43.570;27.826;2022-12-20T09:26:36;101151.13;;;6.69;100.00
11349;BME280;5729;43.570;27.826;2022-12-20T09:29:03;101144.88;;;6.83;100.00
11349;BME280;5729;43.570;27.826;2022-12-20T09:31:29;101144.31;;;7.15;100.00
11349;BME280;5729;43.570;27.826;2022-12-20T09:33:56;101141.16;;;7.08;100.00
11349;BME280;5729;43.570;27.826;2022-12-20T09:36:26;101117.63;;;7.53;100.00
11349;BME280;5729;43.570;27.826;2022-12-20T09:38:53;101125.25;;;7.88;100.00
11349;BME280;5729;43.570;27.826;2022-12-20T09:41:41;101118.25;;;8.11;97.91
11349;BME280;5729;43.570;27.826;2022-12-20T09:44:18;101116.88;;;8.51;93.75
11349;BME280;5729;43.570;27.826;2022-12-20T09:46:47;101107.41;;;8.86;91.86
11349;BME280;5729;43.570;27.826;2022-12-20T09:49:16;101105.41;;;8.78;86.50
11349;BME280;5729;43.570;27.826;2022-12-20T09:57:20;101094.75;;;9.33;81.74
11349;BME280;5729;43.570;27.826;2022-12-20T09:59:48;101093.22;;;9.68;78.03
11349;BME280;5729;43.570;27.826;2022-12-20T10:02:18;101083.22;;;9.82;74.45
11349;BME280;5729;43.570;27.826;2022-12-20T10:04:44;101088.97;;;10.03;72.85
11349;BME280;5729;43.570;27.826;2022-12-20T10:10:02;101076.44;;;10.87;68.97
11349;BME280;5729;43.570;27.826;2022-12-20T10:12:45;101074.91;;;11.35;64.18
11349;BME280;5729;43.570;27.826;2022-12-20T10:15:32;101068.84;;;11.77;60.15
11349;BME280;5729;43.570;27.826;2022-12-20T10:18:27;101063.31;;;11.91;57.93
11349;BME280;5729;43.570;27.826;2022-12-20T10:21:25;101050.88;;;12.59;54.50
11349;BME280;5729;43.570;27.826;2022-12-20T10:24:03;101035.13;;;12.44;53.72
11349;BME280;5729;43.570;27.826;2022-12-20T10:26:32;101037.59;;;12.83;53.69
11349;BME280;5729;43.570;27.826;2022-12-20T10:28:58;101026.34;;;13.19;52.71
11349;BME280;5729;43.570;27.826;2022-12-20T10:31:23;101031.81;;;13.61;51.12
11349;BME280;5729;43.570;27.826;2022-12-20T10:33:49;101023.84;;;13.85;50.10
11349;BME280;5729;43.570;27.826;2022-12-20T10:36:30;101021.38;;;13.51;50.29
11349;BME280;5729;43.570;27.826;2022-12-20T10:39:01;101021.13;;;13.35;51.05
11349;BME280;5729;43.570;27.826;2022-12-20T10:41:33;101010.94;;;13.61;50.34
11349;BME280;5729;43.570;27.826;2022-12-20T10:46:47;101009.34;;;12.63;53.07
11349;BME280;5729;43.570;27.826;2022-12-20T10:51:53;101013.31;;;11.54;56.74
11349;BME280;5729;43.570;27.826;2022-12-20T10:54:46;101010.69;;;11.06;61.55
11349;BME280;5729;43.570;27.826;2022-12-20T10:57:20;100995.97;;;10.50;67.68
11349;BME280;5729;43.570;27.826;2022-12-20T10:59:52;101003.75;;;10.29;71.25
11349;BME280;5729;43.570;27.826;2022-12-20T11:07:36;100993.28;;;9.33;87.39
11349;BME280;5729;43.570;27.826;2022-12-20T11:10:17;100975.16;;;9.25;90.42
11349;BME280;5729;43.570;27.826;2022-12-20T11:12:57;100975.47;;;9.10;92.51
11349;BME280;5729;43.570;27.826;2022-12-20T11:15:26;100970.16;;;9.05;95.34
11349;BME280;5729;43.570;27.826;2022-12-20T11:18:07;100960.41;;;9.09;97.29
11349;BME280;5729;43.570;27.826;2022-12-20T11:31:26;100961.06;;;9.28;90.64
11349;BME280;5729;43.570;27.826;2022-12-20T11:39:53;100940.69;;;8.72;100.00
11349;BME280;5729;43.570;27.826;2022-12-20T11:45:30;100941.59;;;8.22;100.00
11349;BME280;5729;43.570;27.826;2022-12-20T11:49:10;100926.06;;;8.19;100.00
11349;BME280;5729;43.570;27.826;2022-12-20T11:51:22;100941.16;;;7.82;100.00
11349;BME280;5729;43.570;27.826;2022-12-20T11:54:01;100931.81;;;7.61;100.00
11349;BME280;5729;43.570;27.826;2022-12-20T11:56:39;100934.56;;;7.37;100.00
11349;BME280;5729;43.570;27.826;2022-12-20T11:59:17;100927.56;;;7.41;100.00
11349;BME280;5729;43.570;27.826;2022-12-20T12:01:54;100933.22;;;7.40;100.00
11349;BME280;5729;43.570;27.826;2022-12-20T12:04:25;100927.47;;;7.27;100.00
11349;BME280;5729;43.570;27.826;2022-12-20T12:07:01;100921.22;;;7.13;100.00
11349;BME280;5729;43.570;27.826;2022-12-20T12:09:39;100909.91;;;7.16;100.00
11349;BME280;5729;43.570;27.826;2022-12-20T12:12:14;100915.56;;;7.34;100.00
11349;BME280;5729;43.570;27.826;2022-12-20T12:15:04;100914.72;;;7.38;100.00
11349;BME280;5729;43.570;27.826;2022-12-20T12:17:59;100905.25;;;7.03;100.00
11349;BME280;5729;43.570;27.826;2022-12-20T12:25:52;100905.75;;;6.86;100.00
11349;BME280;5729;43.570;27.826;2022-12-20T12:28:18;100904.72;;;6.82;100.00
11349;BME280;5729;43.570;27.826;2022-12-20T12:30:50;100907.56;;;6.67;100.00
11349;BME280;5729;43.570;27.826;2022-12-20T12:33:23;100899.72;;;6.76;100.00
11349;BME280;5729;43.570;27.826;2022-12-20T12:44:33;100899.88;;;6.61;100.00
11349;BME280;5729;43.570;27.826;2022-12-20T12:47:05;100898.81;;;6.62;100.00
11349;BME280;5729;43.570;27.826;2022-12-20T12:49:36;100896.97;;;6.57;100.00
11349;BME280;5729;43.570;27.826;2022-12-20T12:52:04;100898.00;;;6.61;100.00
11349;BME280;5729;43.570;27.826;2022-12-20T12:54:39;100894.25;;;6.62;100.00
11349;BME280;5729;43.570;27.826;2022-12-20T13:09:53;100894.75;;;6.40;100.00
11349;BME280;5729;43.570;27.826;2022-12-20T13:17:56;100873.59;;;6.39;100.00
11349;BME280;5729;43.570;27.826;2022-12-20T13:20:33;100882.06;;;6.22;100.00
11349;BME280;5729;43.570;27.826;2022-12-20T13:25:36;100861.69;;;6.26;100.00
11349;BME280;5729;43.570;27.826;2022-12-20T13:31:29;100857.69;;;6.24;100.00
11349;BME280;5729;43.570;27.826;2022-12-20T13:33:45;100854.56;;;6.16;100.00
11349;BME280;5729;43.570;27.826;2022-12-20T13:43:48;100851.88;;;5.15;100.00
11349;BME280;5729;43.570;27.826;2022-12-20T13:46:25;100843.81;;;5.20;100.00
11349;BME280;5729;43.570;27.826;2022-12-20T13:49:04;100848.34;;;5.24;100.00
11349;BME280;5729;43.570;27.826;2022-12-20T13:51:33;100844.63;;;5.20;100.00
11349;BME280;5729;43.570;27.826;2022-12-20T13:54:17;100828.16;;;5.03;100.00
11349;BME280;5729;43.570;27.826;2022-12-20T13:56:48;100828.91;;;5.08;100.00
11349;BME280;5729;43.570;27.826;2022-12-20T13:59:26;100824.94;;;5.06;100.00
11349;BME280;5729;43.570;27.826;2022-12-20T14:01:58;100827.91;;;5.04;100.00
11349;BME280;5729;43.570;27.826;2022-12-20T14:04:26;100809.19;;;5.04;100.00
11349;BME280;5729;43.570;27.826;2022-12-20T14:06:55;100815.63;;;4.98;100.00
11349;BME280;5729;43.570;27.826;2022-12-20T14:09:32;100805.56;;;4.85;100.00
11349;BME280;5729;43.570;27.826;2022-12-20T14:12:15;100797.63;;;4.65;100.00
11349;BME280;5729;43.570;27.826;2022-12-20T14:14:46;100798.47;;;4.60;100.00
11349;BME280;5729;43.570;27.826;2022-12-20T14:19:41;100805.47;;;4.51;100.00
11349;BME280;5729;43.570;27.826;2022-12-20T14:22:09;100803.34;;;4.48;100.00
11349;BME280;5729;43.570;27.826;2022-12-20T14:24:40;100803.88;;;4.45;100.00
11349;BME280;5729;43.570;27.826;2022-12-20T14:27:11;100795.09;;;4.34;100.00
11349;BME280;5729;43.570;27.826;2022-12-20T14:29:38;100800.19;;;4.31;100.00
11349;BME280;5729;43.570;27.826;2022-12-20T14:32:04;100790.88;;;4.23;100.00
11349;BME280;5729;43.570;27.826;2022-12-20T14:34:31;100794.66;;;4.17;100.00